WAOO/BDJ METAR and TAF weather

Enter ICAO airport designator
Station Type Date Time Source
WAOO METAR 2020/03/31 10:00 UTC NOAA

WAOO 311000Z 13003KT 9000 SCT018 27/25 Q1009 NOSIG


Station Type Date Time Source
WAOO Decoded METAR 2020/03/31 10:00 UTC NOAA

Station name not available
Mar 31, 2020 - 06:00 AM EDT / 2020.03.31 1000 UTC
Wind: from the SE (130 degrees) at 3 MPH (3 KT):0
Visibility: 5 mile(s):0
Sky conditions: partly cloudy
Temperature: 80 F (27 C)
Dew Point: 77 F (25 C)
Relative Humidity: 88%
Pressure (altimeter): 29.80 in. Hg (1009 hPa)
ob: WAOO 311000Z 13003KT 9000 SCT018 27/25 Q1009 NOSIG
cycle: 10

Station Type Date Time Source
WAOO TAF 2020/03/31 12:40 UTC NOAA

TAF WAOO 311100Z 3112/0112 04004KT 9000 SCT018 PROB30
TEMPO 3112/3116 6000 RA

Example: see airport list